ΕΜΥ, Εθνική Μετεωρολογική Υπηρεσία - Δελτία Καιρού, Προγνώσεις

ΑΕΡΟΝΑΥΤΙΛΙΑ

GREEK AIRPORTS CODES

LGMG 181000Z 30015G25KT 9999 FEW025 23/05 Q1006 RMK FEW180=

EUROPEAN AIRPORTS CODES

LFPO 181100Z 03008KT 350V070 9999 BKN030 09/03 Q1022 NOSIG=